Time;durP1;ratioP1;P1;durP2;ratioP2;P2;SDS_P1;SDS_P2;PMS_P1;PMS_P2;Temp;Humidity;BMP_temperature;BMP_pressure;BME280_temperature;BME280_humidity;BME280_pressure;Samples;Min_cycle;Max_cycle;Signal;HPM_P1;HPM_P2
2022/11/19 00:01:18;;;;;;;5.80;2.83;;;;;;;-2.80;48.24;101435.38;5025966;28;20048;-68
2022/11/19 00:03:45;;;;;;;18.50;2.97;;;;;;;-2.79;48.12;101435.41;5004204;28;20786;-67
2022/11/19 00:06:22;;;;;;;6.00;2.72;;;;;;;-2.92;48.36;101438.50;5006779;28;20045;-66
2022/11/19 00:08:47;;;;;;;7.15;2.13;;;;;;;-2.83;48.38;101446.41;5007036;28;20067;-69
2022/11/19 00:12:53;;;;;;;4.88;2.30;;;;;;;-2.77;47.93;101446.56;5025235;28;20509;-69
2022/11/19 00:14:01;;;;;;;5.82;2.47;;;;;;;-2.81;48.00;101449.88;5025399;28;21427;-68
2022/11/19 00:16:27;;;;;;;4.20;2.15;;;;;;;-2.91;48.25;101453.03;5026507;28;20572;-69
2022/11/19 00:18:52;;;;;;;6.80;2.25;;;;;;;-2.84;47.84;101449.81;5024322;28;20095;-69
2022/11/19 00:21:17;;;;;;;5.10;2.28;;;;;;;-2.82;48.02;101452.41;5027005;28;20088;-68
2022/11/19 00:23:43;;;;;;;4.60;2.80;;;;;;;-2.97;48.31;101460.56;5022848;28;20033;-69
2022/11/19 00:26:11;;;;;;;4.60;2.78;;;;;;;-2.95;48.41;101461.47;5028788;28;20095;-69
2022/11/19 00:28:37;;;;;;;5.45;3.25;;;;;;;-3.02;48.61;101464.69;5020838;28;20045;-70
2022/11/19 00:31:13;;;;;;;5.47;2.50;;;;;;;-2.92;48.38;101471.75;5023828;28;20317;-71
2022/11/19 00:33:41;;;;;;;6.43;2.10;;;;;;;-2.95;48.23;101466.59;5015217;28;20040;-70
2022/11/19 00:36:10;;;;;;;4.47;2.60;;;;;;;-2.91;48.19;101473.50;5018080;28;20051;-71
2022/11/19 00:38:36;;;;;;;6.07;2.22;;;;;;;-2.94;48.29;101469.16;5016161;28;20033;-71
2022/11/19 00:41:02;;;;;;;7.55;3.38;;;;;;;-3.03;48.70;101478.28;5027705;28;20036;-73
2022/11/19 00:43:46;;;;;;;5.63;2.95;;;;;;;-2.95;48.12;101480.22;5023710;28;20084;-74
2022/11/19 00:46:19;;;;;;;6.82;1.95;;;;;;;-2.98;48.05;101484.38;5024956;28;20032;-73
2022/11/19 00:48:46;;;;;;;7.45;2.45;;;;;;;-3.01;48.27;101477.50;5024676;28;20086;-72
2022/11/19 00:51:12;;;;;;;9.68;2.17;;;;;;;-3.08;48.46;101473.91;5011140;28;20101;-70
2022/11/19 00:53:38;;;;;;;4.78;2.60;;;;;;;-3.00;48.16;101486.94;5021402;28;20048;-70
2022/11/19 00:56:06;;;;;;;4.22;2.40;;;;;;;-2.99;47.83;101480.97;5027401;28;20041;-70
2022/11/19 00:58:32;;;;;;;6.63;2.13;;;;;;;-3.10;48.45;101478.13;5025927;28;20048;-71
2022/11/19 01:00:58;;;;;;;3.60;2.25;;;;;;;-2.99;47.81;101485.22;5011838;28;20045;-73
2022/11/19 01:03:24;;;;;;;5.00;2.05;;;;;;;-2.99;47.79;101480.09;5023136;28;20049;-73
2022/11/19 01:05:50;;;;;;;6.75;2.78;;;;;;;-3.03;47.99;101478.28;5022855;28;20041;-73
2022/11/19 01:08:15;;;;;;;4.85;1.75;;;;;;;-3.05;47.86;101484.25;5012829;28;20057;-69
2022/11/19 01:10:42;;;;;;;5.55;2.35;;;;;;;-3.13;48.44;101483.19;5024374;28;20052;-71
2022/11/19 01:15:51;;;;;;;4.22;2.53;;;;;;;-3.13;47.76;101490.84;5023986;28;20083;-71
2022/11/19 01:18:18;;;;;;;5.28;2.33;;;;;;;-3.13;47.93;101490.00;5023381;28;20136;-70
2022/11/19 01:20:44;;;;;;;4.45;2.10;;;;;;;-3.13;48.13;101487.44;5026051;28;20065;-71
2022/11/19 01:23:10;;;;;;;3.63;1.92;;;;;;;-3.19;48.27;101488.13;5025472;28;20041;-72
2022/11/19 01:25:35;;;;;;;4.93;2.17;;;;;;;-3.23;48.46;101499.09;5017025;28;20039;-69
2022/11/19 01:28:02;;;;;;;3.63;1.98;;;;;;;-3.11;47.80;101501.13;5022786;28;20045;-70
2022/11/19 01:30:28;;;;;;;6.78;2.88;;;;;;;-3.14;47.90;101501.91;5007809;28;20812;-71
2022/11/19 01:32:53;;;;;;;3.83;2.30;;;;;;;-3.18;47.97;101494.97;5021565;28;20049;-72
2022/11/19 01:35:19;;;;;;;6.30;1.98;;;;;;;-3.25;48.25;101498.16;5023890;28;20553;-65
2022/11/19 01:37:44;;;;;;;4.85;1.80;;;;;;;-3.30;48.19;101499.75;5023570;28;20894;-66
2022/11/19 01:40:10;;;;;;;3.97;1.98;;;;;;;-3.34;48.46;101503.94;5022352;28;20764;-68
2022/11/19 01:42:48;;;;;;;6.72;2.83;;;;;;;-3.35;48.88;101511.53;5020905;28;20037;-64
2022/11/19 01:45:34;;;;;;;3.78;1.98;;;;;;;-3.34;48.80;101514.16;5022486;28;20366;-68
2022/11/19 01:48:06;;;;;;;3.97;2.10;;;;;;;-3.33;48.62;101515.00;5023173;28;20060;-68
2022/11/19 01:50:33;;;;;;;;;;;;;;;-3.34;48.46;101520.94;5022584;28;20257;-66
2022/11/19 01:52:58;;;;;;;4.18;2.08;;;;;;;-3.33;48.64;101520.13;5022145;28;20306;-69
2022/11/19 01:55:24;;;;;;;5.18;2.03;;;;;;;-3.31;48.44;101523.59;5009923;28;20048;-66
2022/11/19 01:57:55;;;;;;;9.68;2.75;;;;;;;-3.42;48.96;101525.84;5030071;28;20139;-69
2022/11/19 02:00:21;;;;;;;4.13;2.03;;;;;;;-3.49;48.89;101531.63;5034100;28;20123;-68
2022/11/19 02:02:46;;;;;;;4.85;2.33;;;;;;;-3.43;48.71;101518.13;5046074;28;20053;-70
2022/11/19 02:05:12;;;;;;;5.90;2.33;;;;;;;-3.48;49.06;101530.78;5049456;28;20053;-68
2022/11/19 02:07:39;;;;;;;10.18;2.65;;;;;;;-3.43;48.54;101530.91;5028898;28;20111;-68
2022/11/19 02:10:06;;;;;;;4.63;2.13;;;;;;;-3.41;48.72;101531.81;5040190;28;20052;-68
2022/11/19 02:12:44;;;;;;;6.90;2.40;;;;;;;-3.42;48.88;101532.66;5050802;28;20044;-68
2022/11/19 02:15:44;;;;;;;3.53;1.67;;;;;;;-3.48;48.75;101544.41;5046697;28;20168;-68
2022/11/19 02:18:22;;;;;;;4.00;1.90;;;;;;;-3.39;48.38;101540.41;5037946;28;20032;-69
2022/11/19 02:21:27;;;;;;;3.45;1.77;;;;;;;-3.40;48.50;101542.09;5029645;28;20041;-69
2022/11/19 02:24:18;;;;;;;4.05;2.63;;;;;;;-3.43;48.47;101538.56;5044641;28;21679;-67
2022/11/19 02:27:19;;;;;;;6.90;2.47;;;;;;;-3.49;48.88;101550.38;5023054;28;20045;-68
2022/11/19 02:30:17;;;;;;;4.15;2.33;;;;;;;-3.57;48.74;101540.75;5033768;28;20033;-67
2022/11/19 02:32:46;;;;;;;5.82;2.97;;;;;;;-3.52;48.58;101540.06;5035397;28;20041;-68
2022/11/19 02:35:21;;;;;;;5.25;2.85;;;;;;;-3.58;48.69;101542.44;5050408;28;20048;-71
2022/11/19 02:37:55;;;;;;;6.00;2.40;;;;;;;-3.55;48.90;101545.06;5047424;28;20076;-70
2022/11/19 02:40:27;;;;;;;5.78;2.08;;;;;;;-3.52;48.40;101544.28;5051158;28;20036;-69
2022/11/19 02:43:10;;;;;;;3.58;1.60;;;;;;;-3.47;47.97;101547.84;5047105;28;20413;-71
2022/11/19 02:45:43;;;;;;;7.20;2.35;;;;;;;-3.63;49.10;101551.66;5039137;28;20078;-67
2022/11/19 02:48:15;;;;;;;6.28;2.55;;;;;;;-3.55;48.35;101556.97;5035717;28;20049;-69
2022/11/19 02:50:47;;;;;;;4.65;1.77;;;;;;;-3.54;48.49;101562.16;5034493;28;20057;-69
2022/11/19 02:53:13;;;;;;;6.93;2.38;;;;;;;-3.51;48.51;101556.25;5034124;28;20041;-70
2022/11/19 02:55:39;;;;;;;5.13;2.40;;;;;;;-3.54;48.49;101561.25;5031487;28;20033;-67
2022/11/19 02:58:07;;;;;;;7.78;2.85;;;;;;;-3.64;48.94;101570.34;5034198;28;20041;-69
2022/11/19 03:06:24;;;;;;;5.32;2.85;;;;;;;-3.70;48.33;101581.28;5034776;28;20499;-69
2022/11/19 03:08:49;;;;;;;3.78;1.83;;;;;;;-3.65;48.60;101572.84;5029380;28;20509;-67
2022/11/19 03:11:23;;;;;;;6.07;2.90;;;;;;;-3.75;48.60;101581.94;5031762;28;20033;-67
2022/11/19 03:17:05;;;;;;;4.00;2.08;;;;;;;-3.70;48.47;101580.38;5027965;28;20025;-68
2022/11/19 03:19:36;;;;;;;3.65;2.17;;;;;;;-3.70;48.45;101580.38;5032023;28;20038;-71
2022/11/19 03:22:18;;;;;;;4.57;2.35;;;;;;;-3.77;48.85;101578.47;5024946;28;20261;-70
2022/11/19 03:24:55;;;;;;;4.28;1.58;;;;;;;-3.71;48.54;101578.66;5030536;28;20112;-71
2022/11/19 03:27:39;;;;;;;4.10;2.10;;;;;;;-3.90;48.82;101578.09;5031468;28;20049;-69
2022/11/19 03:30:06;;;;;;;4.28;2.25;;;;;;;-3.72;48.38;101575.25;5032750;28;20649;-72
2022/11/19 03:33:05;;;;;;;4.50;2.22;;;;;;;-3.74;48.41;101576.00;5026747;28;20064;-71
2022/11/19 03:35:39;;;;;;;4.22;2.28;;;;;;;-3.85;48.81;101577.34;5028027;28;20056;-70
2022/11/19 03:38:09;;;;;;;3.88;2.03;;;;;;;-3.77;48.35;101576.78;5005734;28;20191;-69
2022/11/19 03:40:36;;;;;;;6.45;2.03;;;;;;;-3.72;48.14;101588.03;5019377;28;20033;-70
2022/11/19 03:43:07;;;;;;;3.72;2.28;;;;;;;-3.67;48.29;101586.47;4995939;28;20041;-67
2022/11/19 03:45:40;;;;;;;7.35;2.40;;;;;;;-3.80;48.63;101592.00;5007427;28;20037;-65
2022/11/19 03:48:06;;;;;;;4.72;3.00;;;;;;;-3.88;48.61;101588.34;5020986;28;20050;-66
2022/11/19 03:50:56;;;;;;;4.22;2.20;;;;;;;-3.77;48.41;101597.22;5021201;28;20041;-66
2022/11/19 03:53:22;;;;;;;7.10;2.83;;;;;;;-3.69;48.03;101600.00;5018701;28;20096;-66
2022/11/19 03:55:54;;;;;;;4.10;1.77;;;;;;;-3.72;47.92;101592.25;5019048;28;20337;-65
2022/11/19 03:58:22;;;;;;;;;;;;;;;-3.77;48.22;101593.78;5019635;28;20686;-66
2022/11/19 04:00:48;;;;;;;8.57;2.30;;;;;;;-3.82;47.78;101595.34;5020749;28;19943;-66
2022/11/19 04:03:13;;;;;;;8.15;2.35;;;;;;;-3.73;47.98;101600.75;5017324;28;20494;-67
2022/11/19 04:05:39;;;;;;;4.13;2.50;;;;;;;-3.75;47.90;101603.25;5019812;28;20557;-67
2022/11/19 04:08:04;;;;;;;6.57;2.28;;;;;;;-3.76;47.90;101609.19;5018589;28;20516;-67
2022/11/19 04:10:30;;;;;;;3.95;1.75;;;;;;;-3.77;47.95;101598.91;5016899;28;20061;-69
2022/11/19 04:12:55;;;;;;;6.05;2.78;;;;;;;-3.77;47.56;101615.09;5018860;28;20235;-65
2022/11/19 04:15:21;;;;;;;5.60;2.40;;;;;;;-3.83;47.95;101624.25;5004346;28;20774;-65
2022/11/19 04:17:46;;;;;;;5.70;2.80;;;;;;;-3.86;47.95;101629.28;5016784;28;20068;-64
2022/11/19 04:20:12;;;;;;;4.95;2.40;;;;;;;-3.85;47.99;101631.00;5020348;28;20549;-66
2022/11/19 04:22:37;;;;;;;4.97;2.67;;;;;;;-3.83;47.86;101620.03;5016998;28;20055;-65
2022/11/19 04:25:03;;;;;;;4.20;2.92;;;;;;;-3.91;47.94;101627.44;5019106;28;20549;-64
2022/11/19 04:27:29;;;;;;;4.53;2.65;;;;;;;-3.81;48.00;101623.47;5017950;28;20055;-66
2022/11/19 04:29:54;;;;;;;4.03;2.38;;;;;;;-3.80;47.83;101634.59;5020450;28;20128;-65
2022/11/19 04:32:20;;;;;;;5.80;2.45;;;;;;;-3.78;47.64;101643.16;5018070;28;20048;-68
2022/11/19 04:34:45;;;;;;;5.25;2.97;;;;;;;-3.83;47.70;101635.34;5017479;28;20030;-64
2022/11/19 04:37:11;;;;;;;3.47;1.98;;;;;;;-3.79;47.49;101631.19;5015647;28;20041;-65
2022/11/19 04:39:36;;;;;;;7.70;2.20;;;;;;;-3.88;47.88;101642.00;5017368;28;20530;-66
2022/11/19 04:42:01;;;;;;;6.13;2.70;;;;;;;-3.80;47.73;101642.25;5018754;28;20072;-65
2022/11/19 04:44:27;;;;;;;3.75;2.20;;;;;;;-3.78;47.41;101633.81;5017285;28;20120;-65
2022/11/19 04:46:53;;;;;;;5.65;2.28;;;;;;;-3.76;47.29;101638.97;5017568;28;20073;-66
2022/11/19 04:49:18;;;;;;;5.68;2.78;;;;;;;-3.79;47.25;101649.06;5018347;28;20135;-67
2022/11/19 04:51:44;;;;;;;5.25;2.10;;;;;;;-3.83;47.21;101642.13;5018073;28;20190;-67
2022/11/19 04:54:09;;;;;;;6.13;3.22;;;;;;;-3.80;47.37;101644.81;5017226;28;20075;-66
2022/11/19 04:56:35;;;;;;;4.22;1.77;;;;;;;-4.01;47.67;101644.97;5016406;28;20136;-68
2022/11/19 04:59:02;;;;;;;4.72;2.75;;;;;;;-3.81;47.63;101645.59;5020485;28;20040;-69
2022/11/19 05:01:28;;;;;;;4.00;2.15;;;;;;;-3.83;47.28;101648.13;5019189;28;20033;-65
2022/11/19 05:03:53;;;;;;;4.20;2.17;;;;;;;-3.84;47.37;101642.97;5017527;28;20036;-67
2022/11/19 05:06:19;;;;;;;7.55;2.50;;;;;;;-3.89;47.31;101646.25;5013932;28;20083;-67
2022/11/19 05:08:44;;;;;;;5.82;2.22;;;;;;;-3.84;47.32;101648.94;5015016;28;20491;-66
2022/11/19 05:11:10;;;;;;;4.30;2.05;;;;;;;-3.85;47.02;101652.31;5020240;28;20033;-66
2022/11/19 05:13:35;;;;;;;5.40;3.25;;;;;;;-4.07;47.62;101657.56;5016956;28;20062;-64
2022/11/19 05:16:01;;;;;;;6.22;2.35;;;;;;;-4.16;48.15;101655.56;5017562;28;20067;-65
2022/11/19 05:18:26;;;;;;;5.18;2.20;;;;;;;-4.06;47.91;101644.81;5018025;28;20037;-65
2022/11/19 05:20:52;;;;;;;5.82;3.05;;;;;;;-3.95;47.63;101640.91;5016801;28;20070;-64
2022/11/19 05:23:18;;;;;;;5.03;1.98;;;;;;;-3.88;47.61;101645.41;5015077;28;20049;-64
2022/11/19 05:25:43;;;;;;;6.05;3.08;;;;;;;-3.91;47.50;101642.75;5017324;28;20159;-64
2022/11/19 05:28:08;;;;;;;6.32;2.97;;;;;;;-3.93;47.32;101654.59;5015016;28;20044;-63
2022/11/19 05:30:34;;;;;;;5.47;2.42;;;;;;;-3.96;47.52;101649.41;5018103;28;20163;-65
2022/11/19 05:33:00;;;;;;;6.05;3.08;;;;;;;-3.95;47.36;101645.16;5017540;28;20529;-66
2022/11/19 05:35:25;;;;;;;4.63;2.53;;;;;;;-3.95;47.21;101655.38;4999748;28;20102;-64
2022/11/19 05:37:51;;;;;;;3.10;1.60;;;;;;;-3.99;47.48;101651.84;5015993;28;20137;-66
2022/11/19 05:40:17;;;;;;;4.82;2.15;;;;;;;-4.01;47.27;101650.97;5016604;28;20041;-65
2022/11/19 05:42:42;;;;;;;3.97;2.28;;;;;;;-4.03;47.29;101647.50;5001990;28;20067;-65
2022/11/19 05:45:08;;;;;;;5.25;2.30;;;;;;;-3.96;47.27;101653.66;5016877;28;20037;-65
2022/11/19 05:47:34;;;;;;;4.65;2.40;;;;;;;-3.93;46.97;101641.84;5017827;28;20057;-65
2022/11/19 05:49:59;;;;;;;4.82;2.53;;;;;;;-3.92;47.00;101646.16;5019016;28;20068;-65
2022/11/19 05:52:25;;;;;;;7.15;2.75;;;;;;;-3.94;47.02;101652.91;5016460;28;20119;-66
2022/11/19 05:54:51;;;;;;;9.95;3.40;;;;;;;-4.05;47.25;101644.00;5002493;28;20037;-66
2022/11/19 05:57:16;;;;;;;7.38;3.13;;;;;;;-3.99;47.13;101646.75;5015589;28;20126;-66
2022/11/19 05:59:42;;;;;;;6.68;2.78;;;;;;;-3.92;46.83;101645.25;5018751;28;20609;-67
2022/11/19 06:02:07;;;;;;;8.00;3.38;;;;;;;-4.01;47.08;101644.97;5003892;28;20061;-68
2022/11/19 06:04:32;;;;;;;5.40;2.78;;;;;;;-3.96;46.88;101643.44;5023351;28;20073;-68
2022/11/19 06:06:58;;;;;;;6.80;2.92;;;;;;;-3.93;46.75;101643.53;5021757;28;20053;-67
2022/11/19 06:09:23;;;;;;;5.35;1.83;;;;;;;-3.89;46.68;101641.13;5022100;28;20032;-68
2022/11/19 06:11:49;;;;;;;7.97;3.42;;;;;;;-3.94;46.60;101650.34;5018148;28;20138;-70
2022/11/19 06:14:21;;;;;;;4.88;2.67;;;;;;;-3.92;46.46;101650.38;5018233;28;20136;-70
2022/11/19 06:16:51;;;;;;;5.85;3.05;;;;;;;-3.96;46.22;101654.53;5014322;28;20025;-68
2022/11/19 06:19:17;;;;;;;5.18;2.55;;;;;;;-3.91;46.43;101658.09;5018485;28;20167;-68
2022/11/19 06:21:44;;;;;;;5.72;1.95;;;;;;;-3.81;46.12;101664.34;5017744;28;20056;-68
2022/11/19 06:24:09;;;;;;;5.47;2.58;;;;;;;-3.77;46.16;101660.22;5017939;28;20033;-70
2022/11/19 06:26:35;;;;;;;7.20;2.97;;;;;;;-3.78;45.90;101663.59;5017689;28;20037;-69
2022/11/19 06:29:00;;;;;;;5.22;3.03;;;;;;;-3.61;45.50;101664.97;5007723;28;20288;-68
2022/11/19 06:31:26;;;;;;;6.45;2.15;;;;;;;-3.56;45.20;101666.00;5002756;28;20034;-68
2022/11/19 06:33:54;;;;;;;4.57;2.30;;;;;;;-3.68;45.24;101673.28;5014126;28;20507;-69
2022/11/19 06:36:21;;;;;;;4.80;2.78;;;;;;;-3.82;45.83;101664.31;5017994;28;20160;-68
2022/11/19 06:38:47;;;;;;;4.50;2.30;;;;;;;-3.84;46.06;101674.47;5015953;28;20045;-68
2022/11/19 06:41:12;;;;;;;5.97;2.20;;;;;;;-3.83;45.97;101670.22;5018786;28;20071;-68
2022/11/19 06:43:37;;;;;;;5.57;2.67;;;;;;;-3.88;45.86;101672.63;5018696;28;20059;-69
2022/11/19 06:46:03;;;;;;;3.53;2.38;;;;;;;-3.81;45.41;101669.44;5020181;28;20040;-67
2022/11/19 06:48:28;;;;;;;7.10;2.97;;;;;;;-3.67;45.59;101673.34;5005726;28;20115;-68
2022/11/19 06:50:55;;;;;;;4.28;2.13;;;;;;;-3.70;45.34;101660.47;5020381;28;20536;-67
2022/11/19 06:53:21;;;;;;;4.30;2.45;;;;;;;-3.74;45.20;101655.19;5020406;28;20067;-67
2022/11/19 06:55:46;;;;;;;4.45;2.25;;;;;;;-3.83;45.37;101649.78;5009603;28;20608;-66
2022/11/19 06:58:13;;;;;;;6.65;3.47;;;;;;;-3.93;45.85;101658.84;5005733;28;20315;-66
2022/11/19 07:00:38;;;;;;;6.28;2.55;;;;;;;-3.94;46.08;101670.78;5017907;28;20141;-65
2022/11/19 07:03:04;;;;;;;6.72;3.25;;;;;;;-3.94;46.06;101664.81;5021665;28;20064;-65
2022/11/19 07:05:29;;;;;;;8.45;2.92;;;;;;;-3.96;46.22;101664.75;5022147;28;20045;-65
2022/11/19 07:07:55;;;;;;;7.53;2.78;;;;;;;-3.94;46.04;101655.44;5020645;28;20128;-67
2022/11/19 07:10:20;;;;;;;4.43;2.30;;;;;;;-3.92;46.54;101656.38;5022655;28;20034;-66
2022/11/19 07:12:45;;;;;;;7.03;3.50;;;;;;;-3.84;46.22;101654.03;5015848;28;20072;-65
2022/11/19 07:15:11;;;;;;;4.88;2.97;;;;;;;-3.76;45.76;101656.84;5019895;28;20351;-65
2022/11/19 07:17:36;;;;;;;6.20;3.30;;;;;;;-3.72;45.61;101653.56;5015781;28;20127;-66
2022/11/19 07:20:03;;;;;;;6.75;3.13;;;;;;;-3.77;45.84;101655.09;5021472;28;20072;-67
2022/11/19 07:22:29;;;;;;;6.85;2.88;;;;;;;-3.77;46.18;101644.88;5018882;28;20052;-66
2022/11/19 07:24:55;;;;;;;4.75;3.03;;;;;;;-3.75;45.97;101653.47;5019919;28;20086;-66
2022/11/19 07:27:20;;;;;;;7.82;3.13;;;;;;;-3.70;46.06;101646.81;5020846;28;20430;-65
2022/11/19 07:29:45;;;;;;;9.98;3.78;;;;;;;-3.58;45.91;101641.22;5017032;28;20051;-66
2022/11/19 07:32:11;;;;;;;6.10;3.30;;;;;;;-3.51;45.79;101651.69;5005298;28;20098;-68
2022/11/19 07:34:36;;;;;;;7.18;3.83;;;;;;;-3.48;45.68;101649.19;5018095;28;20654;-67
2022/11/19 07:37:02;;;;;;;12.10;4.90;;;;;;;-3.40;45.51;101649.44;5016099;28;20549;-68
2022/11/19 07:39:27;;;;;;;5.80;3.15;;;;;;;-3.29;45.24;101657.44;5019617;28;20431;-68
2022/11/19 07:44:43;;;;;;;8.85;3.13;;;;;;;-2.95;44.94;101655.88;5018566;28;20205;-66
2022/11/19 07:47:09;;;;;;;8.20;3.60;;;;;;;-2.91;44.70;101663.66;5020691;28;20052;-65
2022/11/19 07:49:34;;;;;;;13.02;4.55;;;;;;;-2.99;44.76;101661.72;5020766;28;20213;-66
2022/11/19 07:52:00;;;;;;;9.48;3.95;;;;;;;-2.89;44.73;101666.28;5015976;28;20781;-67
2022/11/19 07:54:25;;;;;;;7.00;3.63;;;;;;;-2.72;44.36;101669.28;5019009;28;20047;-67
2022/11/19 07:56:51;;;;;;;8.27;3.60;;;;;;;-2.42;44.23;101677.81;4999591;28;20870;-68
2022/11/19 07:59:16;;;;;;;7.22;3.78;;;;;;;-1.96;43.41;101670.44;5021786;28;20266;-68
2022/11/19 08:01:42;;;;;;;7.70;4.30;;;;;;;-1.38;42.22;101674.34;5018545;28;20405;-67
2022/11/19 08:04:08;;;;;;;7.18;3.40;;;;;;;-0.86;41.01;101671.19;5020160;28;20061;-67
2022/11/19 08:06:33;;;;;;;8.52;4.03;;;;;;;-0.59;40.05;101674.31;5017855;28;20047;-67
2022/11/19 08:09:01;;;;;;;6.68;3.55;;;;;;;-0.43;39.63;101672.03;5020057;28;20118;-65
2022/11/19 08:11:26;;;;;;;6.68;3.25;;;;;;;-0.33;39.32;101666.22;5020153;28;20379;-67
2022/11/19 08:13:52;;;;;;;4.07;2.58;;;;;;;0.08;38.60;101671.22;5018747;28;20557;-64
2022/11/19 08:19:08;;;;;;;4.43;2.58;;;;;;;0.04;38.88;101670.28;5018980;28;20465;-67
2022/11/19 08:21:34;;;;;;;4.38;2.92;;;;;;;-0.03;39.14;101673.59;5018151;28;20045;-66
2022/11/19 08:24:00;;;;;;;4.60;2.67;;;;;;;0.31;39.27;101675.88;5017381;28;20498;-66
2022/11/19 08:26:26;;;;;;;4.13;2.88;;;;;;;0.39;38.39;101672.56;5020315;28;20057;-68
2022/11/19 08:28:52;;;;;;;4.72;1.98;;;;;;;0.25;37.96;101674.03;5018533;28;20033;-66
2022/11/19 08:31:17;;;;;;;7.00;2.97;;;;;;;0.22;38.78;101674.88;5019856;28;20094;-69
2022/11/19 08:33:43;;;;;;;6.65;3.13;;;;;;;0.26;38.38;101674.06;5019158;28;20864;-68
2022/11/19 08:36:08;;;;;;;5.15;3.00;;;;;;;0.80;38.21;101679.16;5005601;28;20038;-66
2022/11/19 08:38:33;;;;;;;6.05;2.45;;;;;;;1.01;37.67;101679.41;5016309;28;20638;-69
2022/11/19 08:43:51;;;;;;;11.52;5.20;;;;;;;1.94;36.72;101684.75;4991209;28;20243;-65
2022/11/19 08:46:16;;;;;;;8.25;4.68;;;;;;;2.31;34.21;101682.47;5018918;28;20256;-68
2022/11/19 08:48:42;;;;;;;8.57;4.07;;;;;;;2.13;34.58;101672.00;5017196;28;20417;-68
2022/11/19 08:51:13;;;;;;;9.13;4.55;;;;;;;2.44;34.15;101672.22;5017647;28;20449;-67
2022/11/19 08:53:39;;;;;;;4.28;2.65;;;;;;;2.14;35.70;101677.19;5000876;28;20109;-67
2022/11/19 08:56:05;;;;;;;7.55;2.60;;;;;;;2.23;35.40;101678.97;5006308;28;20031;-65
2022/11/19 08:58:31;;;;;;;5.65;3.20;;;;;;;2.25;35.32;101666.09;5015711;28;20053;-67
2022/11/19 09:00:57;;;;;;;5.28;2.80;;;;;;;2.42;35.23;101668.78;5005058;28;20163;-67
2022/11/19 09:03:23;;;;;;;7.47;2.95;;;;;;;2.85;35.17;101676.78;5016244;28;20048;-68
2022/11/19 09:05:48;;;;;;;5.53;2.58;;;;;;;2.66;35.05;101671.50;5017967;28;20052;-66
2022/11/19 09:08:14;;;;;;;6.47;3.55;;;;;;;1.88;35.15;101676.94;5006009;28;20080;-66
2022/11/19 09:10:39;;;;;;;3.83;2.45;;;;;;;2.29;35.19;101673.00;5013581;28;20080;-66
2022/11/19 09:13:05;;;;;;;4.68;3.08;;;;;;;2.75;34.63;101676.72;5015469;28;20041;-66
2022/11/19 09:15:31;;;;;;;4.70;2.97;;;;;;;2.93;34.51;101677.66;5019742;28;20494;-68
2022/11/19 09:17:56;;;;;;;5.75;2.95;;;;;;;2.72;33.85;101678.44;5011942;28;20145;-68
2022/11/19 09:20:21;;;;;;;5.90;3.05;;;;;;;3.18;33.01;101669.19;5019717;28;20543;-64
2022/11/19 09:22:47;;;;;;;5.07;2.95;;;;;;;3.59;33.47;101671.03;5016204;28;20068;-68
2022/11/19 09:25:12;;;;;;;4.45;2.40;;;;;;;3.63;32.46;101677.09;5020197;28;20181;-66
2022/11/19 09:27:38;;;;;;;5.13;2.20;;;;;;;3.21;33.96;101670.06;5014935;28;20047;-67
2022/11/19 09:30:05;;;;;;;9.00;3.38;;;;;;;3.47;32.58;101676.19;5019675;28;20324;-67
2022/11/19 09:32:31;;;;;;;5.13;2.80;;;;;;;3.13;33.63;101680.34;5017337;28;20848;-67
2022/11/19 09:34:56;;;;;;;7.45;2.72;;;;;;;3.22;33.91;101684.69;5016606;28;20036;-66
2022/11/19 09:37:21;;;;;;;3.05;2.38;;;;;;;2.89;34.42;101694.00;5017047;28;20049;-67
2022/11/19 09:39:47;;;;;;;3.65;2.38;;;;;;;2.69;35.01;101689.59;5016430;28;20096;-65
2022/11/19 09:42:16;;;;;;;6.20;2.60;;;;;;;2.38;35.26;101688.53;5017969;28;20035;-66
2022/11/19 09:44:53;;;;;;;4.55;3.08;;;;;;;2.37;34.57;101685.94;5016208;28;20044;-66
2022/11/19 09:47:42;;;;;;;5.22;3.35;;;;;;;2.23;34.88;101685.84;5016995;28;20839;-67
2022/11/19 09:50:19;;;;;;;4.72;3.03;;;;;;;2.26;35.93;101693.59;5009247;28;20045;-67
2022/11/19 09:52:50;;;;;;;5.38;2.78;;;;;;;2.49;34.49;101692.06;5012540;28;20044;-66
2022/11/19 09:55:31;;;;;;;4.80;2.57;;;;;;;2.62;34.93;101682.66;5000771;28;20026;-65
2022/11/19 09:57:58;;;;;;;4.53;2.90;;;;;;;2.61;34.03;101687.84;5012843;28;20387;-67
2022/11/19 10:00:27;;;;;;;4.47;3.05;;;;;;;2.92;34.25;101681.97;5015304;28;20037;-69
2022/11/19 10:02:54;;;;;;;5.28;3.08;;;;;;;3.06;34.28;101689.78;5011075;28;20056;-67
2022/11/19 10:05:46;;;;;;;6.60;3.10;;;;;;;3.28;34.40;101685.56;5013435;28;20037;-68
2022/11/19 10:08:26;;;;;;;7.80;3.17;;;;;;;4.05;32.73;101687.47;5009064;28;20129;-66
2022/11/19 10:11:07;;;;;;;6.32;3.78;;;;;;;3.69;32.31;101687.41;5013367;28;20075;-67
2022/11/19 10:13:45;;;;;;;3.35;2.30;;;;;;;3.05;33.67;101688.06;4998243;28;20056;-68
2022/11/19 10:16:26;;;;;;;4.80;2.55;;;;;;;2.95;34.31;101687.13;5017166;28;20469;-69
2022/11/19 10:19:16;;;;;;;4.55;2.30;;;;;;;3.08;33.44;101688.06;5016821;28;20143;-67
2022/11/19 10:21:49;;;;;;;4.32;3.38;;;;;;;3.31;34.39;101679.56;5016865;28;20142;-67
2022/11/19 10:24:36;;;;;;;5.28;3.47;;;;;;;3.85;33.80;101682.25;5004508;28;20033;-67
2022/11/19 10:27:11;;;;;;;6.57;2.95;;;;;;;4.06;32.88;101679.69;5005757;28;20045;-66
2022/11/19 10:29:39;;;;;;;4.68;3.05;;;;;;;4.11;33.02;101679.69;5001044;28;20044;-68
2022/11/19 10:32:27;;;;;;;5.20;2.40;;;;;;;3.67;33.39;101672.75;5016402;28;20087;-68
2022/11/19 10:34:57;;;;;;;4.40;2.63;;;;;;;3.80;32.40;101666.75;5002520;28;20110;-69
2022/11/19 10:37:28;;;;;;;5.30;2.97;;;;;;;3.98;33.39;101674.53;5016425;28;20059;-67
2022/11/19 10:40:26;;;;;;;4.27;2.60;;;;;;;3.85;34.34;101671.91;5018491;28;20504;-67
2022/11/19 10:42:59;;;;;;;7.80;3.05;;;;;;;3.64;34.29;101667.59;4974201;28;20050;-67
2022/11/19 10:45:27;;;;;;;4.07;2.67;;;;;;;3.75;34.52;101668.47;5005404;28;20044;-67
2022/11/19 10:48:05;;;;;;;5.07;2.75;;;;;;;3.97;34.12;101666.78;4997901;28;21826;-67
2022/11/19 10:50:31;;;;;;;2.30;1.83;;;;;;;3.79;34.44;101659.88;4998860;28;20506;-67
2022/11/19 10:53:07;;;;;;;4.38;2.42;;;;;;;4.20;33.63;101659.00;5000159;28;20081;-68
2022/11/19 10:55:56;;;;;;;5.57;3.13;;;;;;;4.40;33.79;101652.06;5013956;28;20044;-68
2022/11/19 10:58:39;;;;;;;6.50;3.17;;;;;;;4.82;32.50;101646.78;5012270;28;20058;-68
2022/11/19 11:01:15;;;;;;;9.88;3.00;;;;;;;4.67;32.86;101649.41;5015555;28;20135;-68
2022/11/19 11:04:06;;;;;;;4.47;3.03;;;;;;;4.99;32.66;101645.03;5009070;28;20050;-68
2022/11/19 11:06:48;;;;;;;4.72;3.03;;;;;;;5.02;32.49;101642.41;4999641;28;20666;-66
2022/11/19 11:09:36;;;;;;;7.65;2.95;;;;;;;4.90;32.68;101636.41;4996534;28;20041;-67
2022/11/19 11:15:12;;;;;;;5.28;3.08;;;;;;;5.04;32.71;101630.31;4997110;28;20113;-68
2022/11/19 11:17:41;;;;;;;6.95;3.47;;;;;;;5.17;32.49;101620.75;5015157;28;20073;-68
2022/11/19 11:20:20;;;;;;;3.80;2.92;;;;;;;5.43;32.37;101627.50;5004238;28;20038;-69
2022/11/19 11:22:50;;;;;;;5.07;3.17;;;;;;;5.46;32.23;101619.72;5016035;28;20041;-68
2022/11/19 11:25:22;;;;;;;10.95;3.75;;;;;;;5.33;32.78;101620.66;5019793;28;20025;-68
2022/11/19 11:28:06;;;;;;;4.57;3.15;;;;;;;5.64;32.29;101617.00;4997569;28;20037;-69
2022/11/19 11:30:32;;;;;;;5.68;3.80;;;;;;;5.45;32.73;101612.78;5012632;28;20044;-68
2022/11/19 11:33:24;;;;;;;5.00;2.80;;;;;;;5.24;33.05;101616.41;5010236;28;97756;-67
2022/11/19 11:35:54;;;;;;;5.13;3.22;;;;;;;5.22;33.15;101616.41;5006739;28;66303;-69
2022/11/19 11:38:22;;;;;;;8.30;3.20;;;;;;;5.03;33.84;101607.00;5011879;28;20119;-68
2022/11/19 11:41:01;;;;;;;4.70;3.13;;;;;;;4.70;34.05;101613.16;5005861;28;20521;-69
2022/11/19 11:43:29;;;;;;;6.65;3.83;;;;;;;4.27;34.65;101614.13;5016923;28;20049;-68
2022/11/19 11:45:56;;;;;;;5.50;3.22;;;;;;;4.13;35.98;101610.72;5003385;28;20414;-69
2022/11/19 11:48:25;;;;;;;7.55;3.25;;;;;;;3.96;36.18;101609.00;5008573;28;20668;-68
2022/11/19 11:50:50;;;;;;;3.70;2.60;;;;;;;3.84;36.28;101614.19;5022829;28;20115;-68
2022/11/19 11:53:27;;;;;;;7.25;2.72;;;;;;;3.78;36.93;101614.16;5007854;28;20045;-69
2022/11/19 11:56:01;;;;;;;5.68;2.92;;;;;;;3.61;37.95;101606.41;5009245;28;20047;-68
2022/11/19 11:58:31;;;;;;;3.22;1.75;;;;;;;3.25;39.87;101613.22;5011396;28;20756;-68
2022/11/19 12:01:13;;;;;;;1.80;1.08;;;;;;;3.80;39.04;101612.44;5022882;28;20047;-68
2022/11/19 12:03:52;;;;;;;2.90;1.42;;;;;;;3.68;39.25;101615.91;5017177;28;20260;-68